sensor_id;sensor_type;location;lat;lon;timestamp;pressure;altitude;pressure_sealevel;temperature;humidity
16016;BME280;8112;53.592;10.184;2022-09-09T00:00:35;100538.97;;;15.40;100.00
16016;BME280;8112;53.592;10.184;2022-09-09T00:05:45;100525.22;;;15.35;100.00
16016;BME280;8112;53.592;10.184;2022-09-09T00:10:54;100526.97;;;15.46;100.00
16016;BME280;8112;53.592;10.184;2022-09-09T00:16:02;100535.81;;;15.46;100.00
16016;BME280;8112;53.592;10.184;2022-09-09T00:21:11;100526.91;;;15.36;100.00
16016;BME280;8112;53.592;10.184;2022-09-09T00:26:20;100533.66;;;15.40;100.00
16016;BME280;8112;53.592;10.184;2022-09-09T00:31:27;100534.94;;;15.46;100.00
16016;BME280;8112;53.592;10.184;2022-09-09T00:36:32;100537.22;;;15.50;100.00
16016;BME280;8112;53.592;10.184;2022-09-09T00:41:43;100533.75;;;15.50;100.00
16016;BME280;8112;53.592;10.184;2022-09-09T00:46:56;100531.34;;;15.47;100.00
16016;BME280;8112;53.592;10.184;2022-09-09T00:52:13;100517.47;;;15.43;100.00
16016;BME280;8112;53.592;10.184;2022-09-09T00:57:26;100528.28;;;15.51;100.00
16016;BME280;8112;53.592;10.184;2022-09-09T01:02:32;100520.59;;;15.48;100.00
16016;BME280;8112;53.592;10.184;2022-09-09T01:07:40;100522.97;;;15.51;100.00
16016;BME280;8112;53.592;10.184;2022-09-09T01:12:47;100517.81;;;15.50;100.00
16016;BME280;8112;53.592;10.184;2022-09-09T01:17:59;100512.44;;;15.40;100.00
16016;BME280;8112;53.592;10.184;2022-09-09T01:28:51;100518.19;;;15.45;100.00
16016;BME280;8112;53.592;10.184;2022-09-09T01:33:57;100508.53;;;15.44;100.00
16016;BME280;8112;53.592;10.184;2022-09-09T01:39:02;100521.22;;;15.41;100.00
16016;BME280;8112;53.592;10.184;2022-09-09T01:44:07;100517.47;;;15.43;100.00
16016;BME280;8112;53.592;10.184;2022-09-09T01:49:11;100515.78;;;15.42;100.00
16016;BME280;8112;53.592;10.184;2022-09-09T01:54:13;100508.53;;;15.44;100.00
16016;BME280;8112;53.592;10.184;2022-09-09T01:59:30;100501.28;;;15.46;100.00
16016;BME280;8112;53.592;10.184;2022-09-09T02:04:40;100501.13;;;15.27;100.00
16016;BME280;8112;53.592;10.184;2022-09-09T02:09:57;100503.75;;;15.38;100.00
16016;BME280;8112;53.592;10.184;2022-09-09T02:15:07;100515.78;;;15.42;100.00
16016;BME280;8112;53.592;10.184;2022-09-09T02:20:21;100515.31;;;15.37;100.00
16016;BME280;8112;53.592;10.184;2022-09-09T02:25:33;100521.16;;;15.31;100.00
16016;BME280;8112;53.592;10.184;2022-09-09T02:30:49;100515.38;;;15.25;100.00
16016;BME280;8112;53.592;10.184;2022-09-09T02:36:01;100503.69;;;15.28;100.00
16016;BME280;8112;53.592;10.184;2022-09-09T02:41:05;100505.38;;;15.29;100.00
16016;BME280;8112;53.592;10.184;2022-09-09T02:46:22;100496.81;;;15.25;100.00
16016;BME280;8112;53.592;10.184;2022-09-09T02:51:32;100509.09;;;15.27;100.00
16016;BME280;8112;53.592;10.184;2022-09-09T02:56:40;100505.28;;;15.19;100.00
16016;BME280;8112;53.592;10.184;2022-09-09T03:01:48;100500.28;;;15.26;100.00
16016;BME280;8112;53.592;10.184;2022-09-09T03:06:50;100511.75;;;15.27;100.00
16016;BME280;8112;53.592;10.184;2022-09-09T03:11:54;100512.38;;;15.19;100.00
16016;BME280;8112;53.592;10.184;2022-09-09T03:16:58;100514.41;;;15.27;100.00
16016;BME280;8112;53.592;10.184;2022-09-09T03:22:03;100515.50;;;15.24;100.00
16016;BME280;8112;53.592;10.184;2022-09-09T03:27:07;100510.81;;;15.16;100.00
16016;BME280;8112;53.592;10.184;2022-09-09T03:32:13;100513.34;;;15.18;100.00
16016;BME280;8112;53.592;10.184;2022-09-09T03:37:18;100513.25;;;15.19;100.00
16016;BME280;8112;53.592;10.184;2022-09-09T03:42:21;100510.00;;;15.16;100.00
16016;BME280;8112;53.592;10.184;2022-09-09T03:47:27;100504.84;;;15.03;100.00
16016;BME280;8112;53.592;10.184;2022-09-09T03:52:38;100515.47;;;15.03;100.00
16016;BME280;8112;53.592;10.184;2022-09-09T03:57:43;100514.00;;;14.99;100.00
16016;BME280;8112;53.592;10.184;2022-09-09T04:02:48;100512.31;;;14.98;100.00
16016;BME280;8112;53.592;10.184;2022-09-09T04:07:51;100513.53;;;14.93;100.00
16016;BME280;8112;53.592;10.184;2022-09-09T04:12:55;100514.06;;;14.87;100.00
16016;BME280;8112;53.592;10.184;2022-09-09T04:17:58;100532.63;;;14.87;100.00
16016;BME280;8112;53.592;10.184;2022-09-09T04:23:02;100531.19;;;14.83;100.00
16016;BME280;8112;53.592;10.184;2022-09-09T04:28:04;100529.47;;;14.82;100.00
16016;BME280;8112;53.592;10.184;2022-09-09T04:33:07;100534.22;;;14.78;100.00
16016;BME280;8112;53.592;10.184;2022-09-09T04:38:10;100528.53;;;14.83;100.00
16016;BME280;8112;53.592;10.184;2022-09-09T04:43:12;100535.84;;;14.91;100.00
16016;BME280;8112;53.592;10.184;2022-09-09T04:48:16;100536.25;;;14.86;100.00
16016;BME280;8112;53.592;10.184;2022-09-09T04:53:18;100549.72;;;14.94;100.00
16016;BME280;8112;53.592;10.184;2022-09-09T04:58:30;100549.81;;;15.04;100.00
16016;BME280;8112;53.592;10.184;2022-09-09T05:03:34;100555.47;;;15.11;100.00
16016;BME280;8112;53.592;10.184;2022-09-09T05:08:37;100545.94;;;15.08;100.00
16016;BME280;8112;53.592;10.184;2022-09-09T05:13:39;100556.25;;;15.02;100.00
16016;BME280;8112;53.592;10.184;2022-09-09T05:18:43;100552.84;;;15.00;100.00
16016;BME280;8112;53.592;10.184;2022-09-09T05:23:45;100555.50;;;15.00;100.00
16016;BME280;8112;53.592;10.184;2022-09-09T05:28:47;100552.84;;;15.00;100.00
16016;BME280;8112;53.592;10.184;2022-09-09T05:33:51;100551.66;;;15.04;100.00
16016;BME280;8112;53.592;10.184;2022-09-09T05:38:53;100560.91;;;15.09;100.00
16016;BME280;8112;53.592;10.184;2022-09-09T05:43:56;100549.19;;;15.23;100.00
16016;BME280;8112;53.592;10.184;2022-09-09T05:49:02;100554.19;;;15.38;100.00
16016;BME280;8112;53.592;10.184;2022-09-09T05:54:06;100556.34;;;15.44;100.00
16016;BME280;8112;53.592;10.184;2022-09-09T05:59:12;100570.06;;;15.49;100.00
16016;BME280;8112;53.592;10.184;2022-09-09T06:04:16;100581.81;;;15.47;100.00
16016;BME280;8112;53.592;10.184;2022-09-09T06:09:18;100579.47;;;15.53;100.00
16016;BME280;8112;53.592;10.184;2022-09-09T06:14:20;100577.84;;;15.41;100.00
16016;BME280;8112;53.592;10.184;2022-09-09T06:19:25;100593.78;;;15.41;100.00
16016;BME280;8112;53.592;10.184;2022-09-09T06:24:30;100594.50;;;15.64;100.00
16016;BME280;8112;53.592;10.184;2022-09-09T06:29:35;100601.53;;;15.87;100.00
16016;BME280;8112;53.592;10.184;2022-09-09T06:34:38;100601.00;;;16.04;100.00
16016;BME280;8112;53.592;10.184;2022-09-09T06:39:40;100603.59;;;15.94;100.00
16016;BME280;8112;53.592;10.184;2022-09-09T06:44:42;100600.09;;;15.94;100.00
16016;BME280;8112;53.592;10.184;2022-09-09T06:49:51;100601.97;;;16.24;100.00
16016;BME280;8112;53.592;10.184;2022-09-09T06:54:53;100600.31;;;16.64;100.00
16016;BME280;8112;53.592;10.184;2022-09-09T06:59:55;100591.97;;;16.79;100.00
16016;BME280;8112;53.592;10.184;2022-09-09T07:05:00;100599.56;;;17.34;100.00
16016;BME280;8112;53.592;10.184;2022-09-09T07:10:04;100590.31;;;17.29;100.00
16016;BME280;8112;53.592;10.184;2022-09-09T07:15:07;100588.06;;;17.34;100.00
16016;BME280;8112;53.592;10.184;2022-09-09T07:20:11;100589.28;;;17.00;100.00
16016;BME280;8112;53.592;10.184;2022-09-09T07:25:15;100596.94;;;16.93;100.00
16016;BME280;8112;53.592;10.184;2022-09-09T07:30:21;100600.38;;;17.15;100.00
16016;BME280;8112;53.592;10.184;2022-09-09T07:35:28;100603.59;;;16.78;100.00
16016;BME280;8112;53.592;10.184;2022-09-09T07:40:36;100604.72;;;17.16;100.00
16016;BME280;8112;53.592;10.184;2022-09-09T07:45:41;100609.94;;;17.28;100.00
16016;BME280;8112;53.592;10.184;2022-09-09T07:50:46;100607.72;;;17.82;100.00
16016;BME280;8112;53.592;10.184;2022-09-09T07:55:48;100618.63;;;17.30;100.00
16016;BME280;8112;53.592;10.184;2022-09-09T08:00:50;100621.72;;;17.74;100.00
16016;BME280;8112;53.592;10.184;2022-09-09T08:06:00;100622.88;;;18.69;100.00
16016;BME280;8112;53.592;10.184;2022-09-09T08:11:07;100624.44;;;18.89;100.00
16016;BME280;8112;53.592;10.184;2022-09-09T08:16:12;100618.38;;;19.25;100.00
16016;BME280;8112;53.592;10.184;2022-09-09T08:21:18;100627.38;;;18.96;100.00
16016;BME280;8112;53.592;10.184;2022-09-09T08:26:22;100608.69;;;18.58;100.00
16016;BME280;8112;53.592;10.184;2022-09-09T08:31:25;100627.34;;;18.30;100.00
16016;BME280;8112;53.592;10.184;2022-09-09T08:36:32;100627.50;;;18.57;100.00
16016;BME280;8112;53.592;10.184;2022-09-09T08:41:41;100631.97;;;19.32;100.00
16016;BME280;8112;53.592;10.184;2022-09-09T08:46:51;100642.41;;;19.25;100.00
16016;BME280;8112;53.592;10.184;2022-09-09T08:52:03;100627.06;;;19.09;100.00
16016;BME280;8112;53.592;10.184;2022-09-09T08:57:12;100630.81;;;18.78;100.00
16016;BME280;8112;53.592;10.184;2022-09-09T09:02:18;100632.00;;;18.66;100.00
16016;BME280;8112;53.592;10.184;2022-09-09T09:07:33;100646.09;;;18.48;100.00
16016;BME280;8112;53.592;10.184;2022-09-09T09:12:43;100642.66;;;18.66;100.00
16016;BME280;8112;53.592;10.184;2022-09-09T09:17:49;100638.81;;;19.16;100.00
16016;BME280;8112;53.592;10.184;2022-09-09T09:22:55;100650.06;;;19.38;100.00
16016;BME280;8112;53.592;10.184;2022-09-09T09:28:00;100646.97;;;19.61;100.00
16016;BME280;8112;53.592;10.184;2022-09-09T09:33:14;100641.06;;;20.12;100.00
16016;BME280;8112;53.592;10.184;2022-09-09T09:38:24;100640.25;;;19.93;100.00
16016;BME280;8112;53.592;10.184;2022-09-09T09:43:32;100646.66;;;19.64;100.00
16016;BME280;8112;53.592;10.184;2022-09-09T09:48:37;100640.06;;;20.13;100.00
16016;BME280;8112;53.592;10.184;2022-09-09T09:53:41;100633.00;;;21.50;100.00
16016;BME280;8112;53.592;10.184;2022-09-09T09:58:51;100629.03;;;21.71;100.00
16016;BME280;8112;53.592;10.184;2022-09-09T10:04:15;100635.44;;;21.78;100.00
16016;BME280;8112;53.592;10.184;2022-09-09T10:09:23;100624.97;;;21.59;100.00
16016;BME280;8112;53.592;10.184;2022-09-09T10:14:35;100635.94;;;21.14;100.00
16016;BME280;8112;53.592;10.184;2022-09-09T10:19:55;100635.22;;;20.34;100.00
16016;BME280;8112;53.592;10.184;2022-09-09T10:25:31;100634.56;;;21.02;100.00
16016;BME280;8112;53.592;10.184;2022-09-09T10:30:42;100626.00;;;21.74;100.00
16016;BME280;8112;53.592;10.184;2022-09-09T10:35:53;100619.28;;;22.12;100.00
16016;BME280;8112;53.592;10.184;2022-09-09T10:41:13;100609.94;;;21.99;100.00
16016;BME280;8112;53.592;10.184;2022-09-09T10:46:24;100613.22;;;22.91;100.00
16016;BME280;8112;53.592;10.184;2022-09-09T10:51:40;100611.19;;;23.33;100.00
16016;BME280;8112;53.592;10.184;2022-09-09T10:56:49;100616.19;;;23.04;100.00
16016;BME280;8112;53.592;10.184;2022-09-09T11:02:00;100606.59;;;22.78;100.00
16016;BME280;8112;53.592;10.184;2022-09-09T11:07:09;100612.06;;;21.62;100.00
16016;BME280;8112;53.592;10.184;2022-09-09T11:12:19;100602.78;;;21.15;100.00
16016;BME280;8112;53.592;10.184;2022-09-09T11:17:27;100615.06;;;21.43;100.00
16016;BME280;8112;53.592;10.184;2022-09-09T11:22:37;100601.97;;;22.47;100.00
16016;BME280;8112;53.592;10.184;2022-09-09T11:27:55;100608.13;;;22.64;100.00
16016;BME280;8112;53.592;10.184;2022-09-09T11:33:34;100618.59;;;22.91;100.00
16016;BME280;8112;53.592;10.184;2022-09-09T11:38:45;100612.69;;;22.96;100.00
16016;BME280;8112;53.592;10.184;2022-09-09T11:43:50;100617.88;;;23.37;100.00
16016;BME280;8112;53.592;10.184;2022-09-09T11:48:59;100612.88;;;24.19;100.00
16016;BME280;8112;53.592;10.184;2022-09-09T11:54:04;100620.88;;;23.42;100.00
16016;BME280;8112;53.592;10.184;2022-09-09T11:59:27;100616.88;;;22.50;100.00
16016;BME280;8112;53.592;10.184;2022-09-09T12:04:32;100620.31;;;22.19;100.00
16016;BME280;8112;53.592;10.184;2022-09-09T12:09:46;100616.63;;;21.95;100.00
16016;BME280;8112;53.592;10.184;2022-09-09T12:20:19;100606.41;;;21.90;100.00
16016;BME280;8112;53.592;10.184;2022-09-09T12:25:28;100628.38;;;21.69;100.00
16016;BME280;8112;53.592;10.184;2022-09-09T12:30:37;100623.53;;;21.05;100.00
16016;BME280;8112;53.592;10.184;2022-09-09T12:35:44;100629.53;;;20.72;100.00
16016;BME280;8112;53.592;10.184;2022-09-09T12:40:54;100628.56;;;20.47;100.00
16016;BME280;8112;53.592;10.184;2022-09-09T12:46:01;100628.41;;;20.75;100.00
16016;BME280;8112;53.592;10.184;2022-09-09T12:51:15;100630.47;;;20.81;100.00
16016;BME280;8112;53.592;10.184;2022-09-09T12:56:20;100617.06;;;20.81;100.00
16016;BME280;8112;53.592;10.184;2022-09-09T13:01:27;100606.03;;;20.84;100.00
16016;BME280;8112;53.592;10.184;2022-09-09T13:06:31;100622.03;;;20.76;100.00
16016;BME280;8112;53.592;10.184;2022-09-09T13:11:37;100622.03;;;20.76;100.00
16016;BME280;8112;53.592;10.184;2022-09-09T13:16:54;100630.06;;;20.76;100.00
16016;BME280;8112;53.592;10.184;2022-09-09T13:21:57;100622.75;;;20.51;100.00
16016;BME280;8112;53.592;10.184;2022-09-09T13:27:01;100619.59;;;20.56;100.00
16016;BME280;8112;53.592;10.184;2022-09-09T13:32:05;100629.34;;;20.13;100.00
16016;BME280;8112;53.592;10.184;2022-09-09T13:37:20;100634.94;;;19.83;100.00
16016;BME280;8112;53.592;10.184;2022-09-09T13:42:25;100651.22;;;19.54;100.00
16016;BME280;8112;53.592;10.184;2022-09-09T13:47:32;100660.06;;;19.36;100.00
16016;BME280;8112;53.592;10.184;2022-09-09T13:52:34;100665.22;;;19.19;100.00
16016;BME280;8112;53.592;10.184;2022-09-09T13:57:38;100683.59;;;18.94;100.00
16016;BME280;8112;53.592;10.184;2022-09-09T14:02:41;100683.47;;;18.38;100.00
16016;BME280;8112;53.592;10.184;2022-09-09T14:07:45;100684.63;;;18.16;100.00
16016;BME280;8112;53.592;10.184;2022-09-09T14:13:23;100686.59;;;18.14;100.00
16016;BME280;8112;53.592;10.184;2022-09-09T14:18:33;100657.34;;;17.93;100.00
16016;BME280;8112;53.592;10.184;2022-09-09T14:23:42;100659.50;;;17.89;100.00
16016;BME280;8112;53.592;10.184;2022-09-09T14:28:44;100659.34;;;17.91;100.00
16016;BME280;8112;53.592;10.184;2022-09-09T14:45:48;100667.31;;;17.51;100.00
16016;BME280;8112;53.592;10.184;2022-09-09T14:50:52;100676.53;;;17.37;100.00
16016;BME280;8112;53.592;10.184;2022-09-09T14:56:03;100691.66;;;17.37;100.00
16016;BME280;8112;53.592;10.184;2022-09-09T15:01:07;100693.50;;;17.36;100.00
16016;BME280;8112;53.592;10.184;2022-09-09T15:06:11;100697.13;;;17.35;100.00
16016;BME280;8112;53.592;10.184;2022-09-09T15:11:14;100699.94;;;17.34;100.00
16016;BME280;8112;53.592;10.184;2022-09-09T15:16:19;100699.63;;;17.27;100.00
16016;BME280;8112;53.592;10.184;2022-09-09T15:21:22;100685.59;;;17.25;100.00
16016;BME280;8112;53.592;10.184;2022-09-09T15:26:24;100670.16;;;17.09;100.00
16016;BME280;8112;53.592;10.184;2022-09-09T15:31:30;100665.63;;;17.00;100.00
16016;BME280;8112;53.592;10.184;2022-09-09T15:36:33;100666.94;;;17.15;100.00
16016;BME280;8112;53.592;10.184;2022-09-09T15:41:35;100668.41;;;17.29;100.00
16016;BME280;8112;53.592;10.184;2022-09-09T15:46:40;100666.00;;;17.36;100.00
16016;BME280;8112;53.592;10.184;2022-09-09T15:51:44;100680.19;;;17.46;100.00
16016;BME280;8112;53.592;10.184;2022-09-09T15:56:47;100656.38;;;17.55;100.00
16016;BME280;8112;53.592;10.184;2022-09-09T16:01:52;100665.63;;;17.60;100.00
16016;BME280;8112;53.592;10.184;2022-09-09T16:06:57;100668.03;;;17.73;100.00
16016;BME280;8112;53.592;10.184;2022-09-09T16:12:00;100657.94;;;17.77;100.00
16016;BME280;8112;53.592;10.184;2022-09-09T16:17:05;100658.50;;;18.00;100.00
16016;BME280;8112;53.592;10.184;2022-09-09T16:22:08;100662.56;;;18.24;100.00
16016;BME280;8112;53.592;10.184;2022-09-09T16:27:12;100667.75;;;18.35;100.00
16016;BME280;8112;53.592;10.184;2022-09-09T16:32:15;100658.56;;;18.48;100.00
16016;BME280;8112;53.592;10.184;2022-09-09T16:37:17;100652.53;;;18.56;100.00
16016;BME280;8112;53.592;10.184;2022-09-09T16:42:19;100647.22;;;18.46;100.00
16016;BME280;8112;53.592;10.184;2022-09-09T16:47:25;100640.19;;;18.45;100.00
16016;BME280;8112;53.592;10.184;2022-09-09T16:52:27;100629.94;;;18.50;100.00
16016;BME280;8112;53.592;10.184;2022-09-09T16:57:29;100640.38;;;18.33;100.00
16016;BME280;8112;53.592;10.184;2022-09-09T17:02:32;100655.81;;;18.30;100.00
16016;BME280;8112;53.592;10.184;2022-09-09T17:07:34;100654.84;;;18.21;100.00
16016;BME280;8112;53.592;10.184;2022-09-09T17:12:36;100667.78;;;18.06;100.00
16016;BME280;8112;53.592;10.184;2022-09-09T17:17:39;100665.22;;;17.94;100.00
16016;BME280;8112;53.592;10.184;2022-09-09T17:22:43;100658.22;;;17.84;100.00
16016;BME280;8112;53.592;10.184;2022-09-09T17:27:45;100671.94;;;17.69;100.00
16016;BME280;8112;53.592;10.184;2022-09-09T17:32:49;100660.00;;;17.53;100.00
16016;BME280;8112;53.592;10.184;2022-09-09T17:37:52;100654.53;;;17.35;100.00
16016;BME280;8112;53.592;10.184;2022-09-09T17:42:56;100654.22;;;17.29;100.00
16016;BME280;8112;53.592;10.184;2022-09-09T17:47:59;100654.34;;;17.27;100.00
16016;BME280;8112;53.592;10.184;2022-09-09T17:53:03;100666.97;;;17.25;100.00
16016;BME280;8112;53.592;10.184;2022-09-09T17:58:09;100675.47;;;17.09;100.00
16016;BME280;8112;53.592;10.184;2022-09-09T18:03:12;100687.91;;;16.99;100.00
16016;BME280;8112;53.592;10.184;2022-09-09T18:08:14;100695.25;;;16.85;100.00
16016;BME280;8112;53.592;10.184;2022-09-09T18:13:15;100703.56;;;16.71;100.00
16016;BME280;8112;53.592;10.184;2022-09-09T18:18:18;100710.91;;;16.57;100.00
16016;BME280;8112;53.592;10.184;2022-09-09T18:23:20;100731.69;;;16.42;100.00
16016;BME280;8112;53.592;10.184;2022-09-09T18:28:22;100738.88;;;16.30;100.00
16016;BME280;8112;53.592;10.184;2022-09-09T18:33:25;100744.41;;;16.27;100.00
16016;BME280;8112;53.592;10.184;2022-09-09T18:38:26;100744.84;;;16.22;100.00
16016;BME280;8112;53.592;10.184;2022-09-09T18:43:28;100750.72;;;16.26;100.00
16016;BME280;8112;53.592;10.184;2022-09-09T18:48:32;100742.44;;;16.41;100.00
16016;BME280;8112;53.592;10.184;2022-09-09T18:53:35;100738.41;;;16.46;100.00
16016;BME280;8112;53.592;10.184;2022-09-09T18:58:38;100737.56;;;16.46;100.00
16016;BME280;8112;53.592;10.184;2022-09-09T19:03:41;100740.63;;;16.41;100.00
16016;BME280;8112;53.592;10.184;2022-09-09T19:08:45;100733.16;;;16.56;100.00
16016;BME280;8112;53.592;10.184;2022-09-09T19:13:49;100735.22;;;16.74;100.00
16016;BME280;8112;53.592;10.184;2022-09-09T19:18:54;100726.72;;;16.80;100.00
16016;BME280;8112;53.592;10.184;2022-09-09T19:23:58;100724.59;;;16.74;100.00
16016;BME280;8112;53.592;10.184;2022-09-09T19:29:00;100741.53;;;16.73;100.00
16016;BME280;8112;53.592;10.184;2022-09-09T19:34:18;100748.94;;;16.69;100.00
16016;BME280;8112;53.592;10.184;2022-09-09T19:39:21;100744.72;;;16.66;100.00
16016;BME280;8112;53.592;10.184;2022-09-09T19:44:23;100744.59;;;16.68;100.00
16016;BME280;8112;53.592;10.184;2022-09-09T19:49:26;100737.13;;;16.62;100.00
16016;BME280;8112;53.592;10.184;2022-09-09T19:54:28;100737.63;;;16.56;100.00
16016;BME280;8112;53.592;10.184;2022-09-09T19:59:30;100737.06;;;16.52;100.00
16016;BME280;8112;53.592;10.184;2022-09-09T20:04:33;100749.31;;;16.43;100.00
16016;BME280;8112;53.592;10.184;2022-09-09T20:09:35;100736.22;;;16.30;100.00
16016;BME280;8112;53.592;10.184;2022-09-09T20:14:37;100743.59;;;16.27;100.00
16016;BME280;8112;53.592;10.184;2022-09-09T20:19:40;100743.00;;;16.23;100.00
16016;BME280;8112;53.592;10.184;2022-09-09T20:24:42;100760.19;;;16.19;100.00
16016;BME280;8112;53.592;10.184;2022-09-09T20:29:44;100759.91;;;16.22;100.00
16016;BME280;8112;53.592;10.184;2022-09-09T20:34:48;100764.97;;;16.25;100.00
16016;BME280;8112;53.592;10.184;2022-09-09T20:39:50;100764.53;;;16.20;100.00
16016;BME280;8112;53.592;10.184;2022-09-09T20:44:55;100761.97;;;16.18;100.00
16016;BME280;8112;53.592;10.184;2022-09-09T20:49:58;100758.53;;;16.06;100.00
16016;BME280;8112;53.592;10.184;2022-09-09T20:54:59;100752.13;;;16.09;100.00
16016;BME280;8112;53.592;10.184;2022-09-09T21:00:03;100750.34;;;15.98;100.00
16016;BME280;8112;53.592;10.184;2022-09-09T21:05:07;100762.91;;;15.85;100.00
16016;BME280;8112;53.592;10.184;2022-09-09T21:10:10;100772.81;;;15.71;100.00
16016;BME280;8112;53.592;10.184;2022-09-09T21:15:14;100783.09;;;15.76;100.00
16016;BME280;8112;53.592;10.184;2022-09-09T21:20:18;100786.34;;;15.91;100.00
16016;BME280;8112;53.592;10.184;2022-09-09T21:25:20;100772.81;;;15.82;100.00
16016;BME280;8112;53.592;10.184;2022-09-09T21:30:22;100772.94;;;15.81;100.00
16016;BME280;8112;53.592;10.184;2022-09-09T21:35:26;100772.09;;;15.80;100.00
16016;BME280;8112;53.592;10.184;2022-09-09T21:40:35;100771.84;;;15.72;100.00
16016;BME280;8112;53.592;10.184;2022-09-09T21:45:38;100765.97;;;15.68;100.00
16016;BME280;8112;53.592;10.184;2022-09-09T21:50:44;100771.75;;;15.62;100.00
16016;BME280;8112;53.592;10.184;2022-09-09T21:55:50;100758.41;;;15.41;100.00
16016;BME280;8112;53.592;10.184;2022-09-09T22:00:56;100768.53;;;15.47;100.00
16016;BME280;8112;53.592;10.184;2022-09-09T22:06:03;100759.09;;;15.54;100.00
16016;BME280;8112;53.592;10.184;2022-09-09T22:11:06;100772.88;;;15.60;100.00
16016;BME280;8112;53.592;10.184;2022-09-09T22:16:11;100773.13;;;15.57;100.00
16016;BME280;8112;53.592;10.184;2022-09-09T22:21:16;100770.69;;;15.53;100.00
16016;BME280;8112;53.592;10.184;2022-09-09T22:26:18;100758.00;;;15.57;100.00
16016;BME280;8112;53.592;10.184;2022-09-09T22:31:20;100749.44;;;15.65;100.00
16016;BME280;8112;53.592;10.184;2022-09-09T22:36:24;100764.63;;;15.74;100.00
16016;BME280;8112;53.592;10.184;2022-09-09T22:41:29;100764.38;;;15.77;100.00
16016;BME280;8112;53.592;10.184;2022-09-09T22:46:35;100749.78;;;15.72;100.00
16016;BME280;8112;53.592;10.184;2022-09-09T22:51:49;100753.88;;;15.76;100.00
16016;BME280;8112;53.592;10.184;2022-09-09T22:57:23;100755.19;;;15.81;100.00
16016;BME280;8112;53.592;10.184;2022-09-09T23:02:30;100751.09;;;15.66;100.00
16016;BME280;8112;53.592;10.184;2022-09-09T23:07:42;100751.25;;;15.53;100.00
16016;BME280;8112;53.592;10.184;2022-09-09T23:12:49;100739.41;;;15.46;100.00
16016;BME280;8112;53.592;10.184;2022-09-09T23:18:01;100762.13;;;15.50;100.00
16016;BME280;8112;53.592;10.184;2022-09-09T23:23:07;100753.78;;;15.54;100.00
16016;BME280;8112;53.592;10.184;2022-09-09T23:28:12;100765.38;;;15.65;100.00
16016;BME280;8112;53.592;10.184;2022-09-09T23:33:19;100770.22;;;15.48;100.00
16016;BME280;8112;53.592;10.184;2022-09-09T23:38:25;100761.03;;;15.30;100.00
16016;BME280;8112;53.592;10.184;2022-09-09T23:43:32;100762.38;;;15.24;100.00
16016;BME280;8112;53.592;10.184;2022-09-09T23:48:37;100761.66;;;15.22;100.00
16016;BME280;8112;53.592;10.184;2022-09-09T23:53:43;100757.66;;;15.16;100.00
16016;BME280;8112;53.592;10.184;2022-09-09T23:58:50;100763.69;;;15.18;100.00
